sensor_id;sensor_type;location;lat;lon;timestamp;temperature;humidity
11083;DHT22;5595;50.186;8.468;2023-05-29T00:01:31;16.80;72.00
11083;DHT22;5595;50.186;8.468;2023-05-29T00:03:59;16.70;72.00
11083;DHT22;5595;50.186;8.468;2023-05-29T00:06:26;16.60;72.00
11083;DHT22;5595;50.186;8.468;2023-05-29T00:08:53;16.70;72.40
11083;DHT22;5595;50.186;8.468;2023-05-29T00:11:20;16.60;72.40
11083;DHT22;5595;50.186;8.468;2023-05-29T00:13:47;16.60;72.60
11083;DHT22;5595;50.186;8.468;2023-05-29T00:16:13;16.60;72.50
11083;DHT22;5595;50.186;8.468;2023-05-29T00:18:40;16.60;72.70
11083;DHT22;5595;50.186;8.468;2023-05-29T00:21:12;16.50;72.70
11083;DHT22;5595;50.186;8.468;2023-05-29T00:23:39;16.50;72.90
11083;DHT22;5595;50.186;8.468;2023-05-29T00:26:06;16.40;73.20
11083;DHT22;5595;50.186;8.468;2023-05-29T00:28:34;16.40;73.30
11083;DHT22;5595;50.186;8.468;2023-05-29T00:31:01;16.40;73.30
11083;DHT22;5595;50.186;8.468;2023-05-29T00:33:28;16.40;73.30
11083;DHT22;5595;50.186;8.468;2023-05-29T00:35:56;16.40;74.00
11083;DHT22;5595;50.186;8.468;2023-05-29T00:38:24;16.30;73.40
11083;DHT22;5595;50.186;8.468;2023-05-29T00:40:50;16.30;74.50
11083;DHT22;5595;50.186;8.468;2023-05-29T00:43:17;16.30;74.00
11083;DHT22;5595;50.186;8.468;2023-05-29T00:45:44;16.20;74.10
11083;DHT22;5595;50.186;8.468;2023-05-29T00:48:11;16.30;74.30
11083;DHT22;5595;50.186;8.468;2023-05-29T00:50:38;16.20;74.20
11083;DHT22;5595;50.186;8.468;2023-05-29T00:53:06;16.10;74.30
11083;DHT22;5595;50.186;8.468;2023-05-29T00:55:35;16.10;74.50
11083;DHT22;5595;50.186;8.468;2023-05-29T00:58:02;16.10;74.70
11083;DHT22;5595;50.186;8.468;2023-05-29T01:00:29;16.00;74.90
11083;DHT22;5595;50.186;8.468;2023-05-29T01:02:57;16.00;75.00
11083;DHT22;5595;50.186;8.468;2023-05-29T01:05:23;15.90;75.20
11083;DHT22;5595;50.186;8.468;2023-05-29T01:07:50;15.90;75.20
11083;DHT22;5595;50.186;8.468;2023-05-29T01:10:17;15.90;75.30
11083;DHT22;5595;50.186;8.468;2023-05-29T01:12:51;15.80;75.20
11083;DHT22;5595;50.186;8.468;2023-05-29T01:15:24;15.80;75.50
11083;DHT22;5595;50.186;8.468;2023-05-29T01:20:47;15.70;75.90
11083;DHT22;5595;50.186;8.468;2023-05-29T01:26:42;15.60;76.20
11083;DHT22;5595;50.186;8.468;2023-05-29T01:29:14;15.60;76.30
11083;DHT22;5595;50.186;8.468;2023-05-29T01:31:42;15.50;76.50
11083;DHT22;5595;50.186;8.468;2023-05-29T01:34:10;15.50;76.60
11083;DHT22;5595;50.186;8.468;2023-05-29T01:36:37;15.50;76.60
11083;DHT22;5595;50.186;8.468;2023-05-29T01:39:04;15.40;76.50
11083;DHT22;5595;50.186;8.468;2023-05-29T01:41:32;15.40;76.70
11083;DHT22;5595;50.186;8.468;2023-05-29T01:44:03;15.40;76.70
11083;DHT22;5595;50.186;8.468;2023-05-29T01:46:30;15.50;76.70
11083;DHT22;5595;50.186;8.468;2023-05-29T01:48:57;15.50;76.50
11083;DHT22;5595;50.186;8.468;2023-05-29T01:51:24;15.50;76.60
11083;DHT22;5595;50.186;8.468;2023-05-29T01:53:51;15.40;76.40
11083;DHT22;5595;50.186;8.468;2023-05-29T01:56:18;15.40;76.50
11083;DHT22;5595;50.186;8.468;2023-05-29T01:58:46;15.40;76.60
11083;DHT22;5595;50.186;8.468;2023-05-29T02:01:14;15.40;76.70
11083;DHT22;5595;50.186;8.468;2023-05-29T02:03:41;15.30;76.80
11083;DHT22;5595;50.186;8.468;2023-05-29T02:06:08;15.30;77.00
11083;DHT22;5595;50.186;8.468;2023-05-29T02:08:36;15.20;77.00
11083;DHT22;5595;50.186;8.468;2023-05-29T02:11:02;15.20;77.00
11083;DHT22;5595;50.186;8.468;2023-05-29T02:13:29;15.20;77.10
11083;DHT22;5595;50.186;8.468;2023-05-29T02:15:56;15.10;77.20
11083;DHT22;5595;50.186;8.468;2023-05-29T02:18:24;15.10;77.30
11083;DHT22;5595;50.186;8.468;2023-05-29T02:20:51;15.10;77.40
11083;DHT22;5595;50.186;8.468;2023-05-29T02:23:18;15.10;77.50
11083;DHT22;5595;50.186;8.468;2023-05-29T02:25:45;15.00;77.80
11083;DHT22;5595;50.186;8.468;2023-05-29T02:28:12;15.00;78.00
11083;DHT22;5595;50.186;8.468;2023-05-29T02:30:39;14.90;78.00
11083;DHT22;5595;50.186;8.468;2023-05-29T02:33:06;14.80;78.20
11083;DHT22;5595;50.186;8.468;2023-05-29T02:35:35;14.80;78.60
11083;DHT22;5595;50.186;8.468;2023-05-29T02:38:02;14.80;78.80
11083;DHT22;5595;50.186;8.468;2023-05-29T02:40:29;14.70;78.90
11083;DHT22;5595;50.186;8.468;2023-05-29T02:42:55;14.70;78.90
11083;DHT22;5595;50.186;8.468;2023-05-29T02:45:22;14.70;78.80
11083;DHT22;5595;50.186;8.468;2023-05-29T02:47:49;14.70;78.90
11083;DHT22;5595;50.186;8.468;2023-05-29T02:50:16;14.60;78.80
11083;DHT22;5595;50.186;8.468;2023-05-29T02:52:44;14.60;78.80
11083;DHT22;5595;50.186;8.468;2023-05-29T02:55:11;14.70;78.90
11083;DHT22;5595;50.186;8.468;2023-05-29T02:57:37;14.70;78.80
11083;DHT22;5595;50.186;8.468;2023-05-29T03:00:05;14.60;78.80
11083;DHT22;5595;50.186;8.468;2023-05-29T03:02:33;14.60;79.00
11083;DHT22;5595;50.186;8.468;2023-05-29T03:05:00;14.60;79.10
11083;DHT22;5595;50.186;8.468;2023-05-29T03:07:27;14.50;79.20
11083;DHT22;5595;50.186;8.468;2023-05-29T03:09:55;14.50;79.50
11083;DHT22;5595;50.186;8.468;2023-05-29T03:12:23;14.50;79.80
11083;DHT22;5595;50.186;8.468;2023-05-29T03:14:50;14.50;79.80
11083;DHT22;5595;50.186;8.468;2023-05-29T03:17:17;14.40;80.20
11083;DHT22;5595;50.186;8.468;2023-05-29T03:19:43;14.50;80.80
11083;DHT22;5595;50.186;8.468;2023-05-29T03:22:10;14.40;80.60
11083;DHT22;5595;50.186;8.468;2023-05-29T03:24:37;14.50;81.20
11083;DHT22;5595;50.186;8.468;2023-05-29T03:27:05;14.50;81.80
11083;DHT22;5595;50.186;8.468;2023-05-29T03:29:32;14.50;82.00
11083;DHT22;5595;50.186;8.468;2023-05-29T03:31:59;14.40;82.40
11083;DHT22;5595;50.186;8.468;2023-05-29T03:34:26;14.40;82.80
11083;DHT22;5595;50.186;8.468;2023-05-29T03:36:53;14.50;84.30
11083;DHT22;5595;50.186;8.468;2023-05-29T03:39:20;14.40;84.40
11083;DHT22;5595;50.186;8.468;2023-05-29T03:41:47;14.40;84.80
11083;DHT22;5595;50.186;8.468;2023-05-29T03:44:15;14.40;85.20
11083;DHT22;5595;50.186;8.468;2023-05-29T03:46:41;14.40;85.50
11083;DHT22;5595;50.186;8.468;2023-05-29T03:49:08;14.40;86.20
11083;DHT22;5595;50.186;8.468;2023-05-29T03:51:35;14.40;86.70
11083;DHT22;5595;50.186;8.468;2023-05-29T03:54:02;14.40;86.80
11083;DHT22;5595;50.186;8.468;2023-05-29T03:56:29;14.40;86.90
11083;DHT22;5595;50.186;8.468;2023-05-29T03:58:55;14.40;88.00
11083;DHT22;5595;50.186;8.468;2023-05-29T04:01:24;14.40;87.80
11083;DHT22;5595;50.186;8.468;2023-05-29T04:03:50;14.40;88.00
11083;DHT22;5595;50.186;8.468;2023-05-29T04:06:17;14.40;88.20
11083;DHT22;5595;50.186;8.468;2023-05-29T04:08:44;14.50;88.50
11083;DHT22;5595;50.186;8.468;2023-05-29T04:11:11;14.50;88.10
11083;DHT22;5595;50.186;8.468;2023-05-29T04:13:39;14.50;88.10
11083;DHT22;5595;50.186;8.468;2023-05-29T04:16:07;14.50;88.90
11083;DHT22;5595;50.186;8.468;2023-05-29T04:18:35;14.60;89.00
11083;DHT22;5595;50.186;8.468;2023-05-29T04:21:02;14.50;89.00
11083;DHT22;5595;50.186;8.468;2023-05-29T04:23:29;14.50;89.20
11083;DHT22;5595;50.186;8.468;2023-05-29T04:25:55;14.60;89.60
11083;DHT22;5595;50.186;8.468;2023-05-29T04:28:23;14.60;89.60
11083;DHT22;5595;50.186;8.468;2023-05-29T04:30:50;14.60;90.00
11083;DHT22;5595;50.186;8.468;2023-05-29T04:33:20;14.60;90.00
11083;DHT22;5595;50.186;8.468;2023-05-29T04:35:50;14.60;90.30
11083;DHT22;5595;50.186;8.468;2023-05-29T04:38:18;14.60;90.30
11083;DHT22;5595;50.186;8.468;2023-05-29T04:40:51;14.60;90.40
11083;DHT22;5595;50.186;8.468;2023-05-29T04:43:17;14.60;90.60
11083;DHT22;5595;50.186;8.468;2023-05-29T04:45:44;14.60;90.80
11083;DHT22;5595;50.186;8.468;2023-05-29T04:48:11;14.60;90.80
11083;DHT22;5595;50.186;8.468;2023-05-29T04:50:38;14.70;91.10
11083;DHT22;5595;50.186;8.468;2023-05-29T04:53:06;14.60;91.40
11083;DHT22;5595;50.186;8.468;2023-05-29T04:55:33;14.70;91.60
11083;DHT22;5595;50.186;8.468;2023-05-29T04:57:59;14.60;91.90
11083;DHT22;5595;50.186;8.468;2023-05-29T05:00:27;14.70;92.30
11083;DHT22;5595;50.186;8.468;2023-05-29T05:02:54;14.80;92.30
11083;DHT22;5595;50.186;8.468;2023-05-29T05:05:21;14.80;92.30
11083;DHT22;5595;50.186;8.468;2023-05-29T05:07:47;14.90;92.50
11083;DHT22;5595;50.186;8.468;2023-05-29T05:10:16;15.00;92.60
11083;DHT22;5595;50.186;8.468;2023-05-29T05:12:43;15.10;92.60
11083;DHT22;5595;50.186;8.468;2023-05-29T05:15:10;15.20;92.80
11083;DHT22;5595;50.186;8.468;2023-05-29T05:17:37;15.30;92.80
11083;DHT22;5595;50.186;8.468;2023-05-29T05:20:04;15.30;93.20
11083;DHT22;5595;50.186;8.468;2023-05-29T05:22:34;15.30;92.80
11083;DHT22;5595;50.186;8.468;2023-05-29T05:25:01;15.40;93.10
11083;DHT22;5595;50.186;8.468;2023-05-29T05:27:30;15.40;93.10
11083;DHT22;5595;50.186;8.468;2023-05-29T05:29:57;15.50;93.10
11083;DHT22;5595;50.186;8.468;2023-05-29T05:32:24;15.50;93.10
11083;DHT22;5595;50.186;8.468;2023-05-29T05:34:51;15.60;93.10
11083;DHT22;5595;50.186;8.468;2023-05-29T05:37:18;15.60;93.00
11083;DHT22;5595;50.186;8.468;2023-05-29T05:39:45;15.70;93.00
11083;DHT22;5595;50.186;8.468;2023-05-29T05:42:12;15.80;92.90
11083;DHT22;5595;50.186;8.468;2023-05-29T05:44:40;15.80;92.70
11083;DHT22;5595;50.186;8.468;2023-05-29T05:47:07;15.90;92.60
11083;DHT22;5595;50.186;8.468;2023-05-29T05:49:34;16.00;92.60
11083;DHT22;5595;50.186;8.468;2023-05-29T05:52:00;16.10;92.40
11083;DHT22;5595;50.186;8.468;2023-05-29T05:54:27;16.30;92.30
11083;DHT22;5595;50.186;8.468;2023-05-29T05:56:54;16.40;92.00
11083;DHT22;5595;50.186;8.468;2023-05-29T05:59:21;16.50;91.70
11083;DHT22;5595;50.186;8.468;2023-05-29T06:01:49;16.60;91.30
11083;DHT22;5595;50.186;8.468;2023-05-29T06:04:17;16.80;91.20
11083;DHT22;5595;50.186;8.468;2023-05-29T06:06:44;16.90;90.50
11083;DHT22;5595;50.186;8.468;2023-05-29T06:09:11;17.00;90.00
11083;DHT22;5595;50.186;8.468;2023-05-29T06:11:37;17.20;89.80
11083;DHT22;5595;50.186;8.468;2023-05-29T06:14:04;17.30;88.70
11083;DHT22;5595;50.186;8.468;2023-05-29T06:16:31;17.50;87.60
11083;DHT22;5595;50.186;8.468;2023-05-29T06:18:59;17.60;87.70
11083;DHT22;5595;50.186;8.468;2023-05-29T06:21:26;17.80;87.50
11083;DHT22;5595;50.186;8.468;2023-05-29T06:23:53;17.80;86.90
11083;DHT22;5595;50.186;8.468;2023-05-29T06:26:20;18.00;86.30
11083;DHT22;5595;50.186;8.468;2023-05-29T06:28:47;18.10;85.00
11083;DHT22;5595;50.186;8.468;2023-05-29T06:31:15;18.20;84.60
11083;DHT22;5595;50.186;8.468;2023-05-29T06:33:42;18.20;81.80
11083;DHT22;5595;50.186;8.468;2023-05-29T06:36:10;18.30;82.00
11083;DHT22;5595;50.186;8.468;2023-05-29T06:38:37;18.40;82.30
11083;DHT22;5595;50.186;8.468;2023-05-29T06:41:04;18.50;81.70
11083;DHT22;5595;50.186;8.468;2023-05-29T06:43:31;18.60;81.20
11083;DHT22;5595;50.186;8.468;2023-05-29T06:45:58;18.70;81.30
11083;DHT22;5595;50.186;8.468;2023-05-29T06:48:24;18.80;80.90
11083;DHT22;5595;50.186;8.468;2023-05-29T06:50:51;18.80;80.30
11083;DHT22;5595;50.186;8.468;2023-05-29T06:53:19;18.90;79.70
11083;DHT22;5595;50.186;8.468;2023-05-29T06:55:46;19.00;79.20
11083;DHT22;5595;50.186;8.468;2023-05-29T06:58:13;19.10;79.10
11083;DHT22;5595;50.186;8.468;2023-05-29T07:00:40;19.20;79.70
11083;DHT22;5595;50.186;8.468;2023-05-29T07:03:06;19.20;78.10
11083;DHT22;5595;50.186;8.468;2023-05-29T07:05:33;19.40;78.90
11083;DHT22;5595;50.186;8.468;2023-05-29T07:08:00;19.50;78.40
11083;DHT22;5595;50.186;8.468;2023-05-29T07:10:28;19.50;77.60
11083;DHT22;5595;50.186;8.468;2023-05-29T07:12:55;19.60;76.70
11083;DHT22;5595;50.186;8.468;2023-05-29T07:15:21;19.60;76.60
11083;DHT22;5595;50.186;8.468;2023-05-29T07:17:48;19.70;76.50
11083;DHT22;5595;50.186;8.468;2023-05-29T07:20:15;19.90;76.90
11083;DHT22;5595;50.186;8.468;2023-05-29T07:22:44;20.00;75.10
11083;DHT22;5595;50.186;8.468;2023-05-29T07:25:15;20.00;73.80
11083;DHT22;5595;50.186;8.468;2023-05-29T07:27:45;20.00;72.70
11083;DHT22;5595;50.186;8.468;2023-05-29T07:30:13;20.10;73.30
11083;DHT22;5595;50.186;8.468;2023-05-29T07:32:39;20.20;72.60
11083;DHT22;5595;50.186;8.468;2023-05-29T07:35:07;20.10;70.90
11083;DHT22;5595;50.186;8.468;2023-05-29T07:37:34;20.20;70.90
11083;DHT22;5595;50.186;8.468;2023-05-29T07:40:01;20.20;71.40
11083;DHT22;5595;50.186;8.468;2023-05-29T07:42:31;20.40;71.60
11083;DHT22;5595;50.186;8.468;2023-05-29T07:45:02;20.50;71.40
11083;DHT22;5595;50.186;8.468;2023-05-29T07:47:29;20.50;70.20
11083;DHT22;5595;50.186;8.468;2023-05-29T07:49:55;20.50;69.70
11083;DHT22;5595;50.186;8.468;2023-05-29T07:52:22;20.50;68.90
11083;DHT22;5595;50.186;8.468;2023-05-29T07:54:49;20.50;68.30
11083;DHT22;5595;50.186;8.468;2023-05-29T07:57:16;20.60;68.20
11083;DHT22;5595;50.186;8.468;2023-05-29T07:59:46;20.70;68.30
11083;DHT22;5595;50.186;8.468;2023-05-29T08:02:16;20.80;68.40
11083;DHT22;5595;50.186;8.468;2023-05-29T08:04:43;20.80;67.80
11083;DHT22;5595;50.186;8.468;2023-05-29T08:07:10;20.80;67.40
11083;DHT22;5595;50.186;8.468;2023-05-29T08:09:37;20.80;67.60
11083;DHT22;5595;50.186;8.468;2023-05-29T08:12:04;20.80;67.20
11083;DHT22;5595;50.186;8.468;2023-05-29T08:14:31;21.00;67.50
11083;DHT22;5595;50.186;8.468;2023-05-29T08:16:58;21.00;66.80
11083;DHT22;5595;50.186;8.468;2023-05-29T08:19:26;21.00;66.30
11083;DHT22;5595;50.186;8.468;2023-05-29T08:21:53;21.00;66.40
11083;DHT22;5595;50.186;8.468;2023-05-29T08:24:22;21.10;67.00
11083;DHT22;5595;50.186;8.468;2023-05-29T08:26:52;21.10;66.30
11083;DHT22;5595;50.186;8.468;2023-05-29T08:29:19;21.20;66.20
11083;DHT22;5595;50.186;8.468;2023-05-29T08:31:46;21.30;66.30
11083;DHT22;5595;50.186;8.468;2023-05-29T08:34:13;21.30;65.70
11083;DHT22;5595;50.186;8.468;2023-05-29T08:36:41;21.30;65.80
11083;DHT22;5595;50.186;8.468;2023-05-29T08:39:08;21.30;65.60
11083;DHT22;5595;50.186;8.468;2023-05-29T08:41:41;21.30;65.90
11083;DHT22;5595;50.186;8.468;2023-05-29T08:44:09;21.20;66.40
11083;DHT22;5595;50.186;8.468;2023-05-29T08:46:40;21.30;66.40
11083;DHT22;5595;50.186;8.468;2023-05-29T08:49:08;21.40;67.10
11083;DHT22;5595;50.186;8.468;2023-05-29T08:51:37;21.60;66.80
11083;DHT22;5595;50.186;8.468;2023-05-29T08:54:11;21.80;65.70
11083;DHT22;5595;50.186;8.468;2023-05-29T08:56:38;21.90;65.60
11083;DHT22;5595;50.186;8.468;2023-05-29T08:59:06;22.10;64.30
11083;DHT22;5595;50.186;8.468;2023-05-29T09:01:34;22.00;63.70
11083;DHT22;5595;50.186;8.468;2023-05-29T09:04:01;22.10;62.80
11083;DHT22;5595;50.186;8.468;2023-05-29T09:06:29;22.10;63.20
11083;DHT22;5595;50.186;8.468;2023-05-29T09:08:56;22.20;63.40
11083;DHT22;5595;50.186;8.468;2023-05-29T09:11:25;22.20;62.90
11083;DHT22;5595;50.186;8.468;2023-05-29T09:13:52;22.10;61.70
11083;DHT22;5595;50.186;8.468;2023-05-29T09:16:19;22.00;62.70
11083;DHT22;5595;50.186;8.468;2023-05-29T09:18:46;22.10;62.30
11083;DHT22;5595;50.186;8.468;2023-05-29T09:21:25;22.00;62.00
11083;DHT22;5595;50.186;8.468;2023-05-29T09:23:52;22.00;62.90
11083;DHT22;5595;50.186;8.468;2023-05-29T09:26:21;21.90;62.20
11083;DHT22;5595;50.186;8.468;2023-05-29T09:28:49;22.00;63.00
11083;DHT22;5595;50.186;8.468;2023-05-29T09:31:16;22.00;63.00
11083;DHT22;5595;50.186;8.468;2023-05-29T09:33:48;22.10;63.50
11083;DHT22;5595;50.186;8.468;2023-05-29T09:36:19;22.20;63.10
11083;DHT22;5595;50.186;8.468;2023-05-29T09:38:47;22.20;63.60
11083;DHT22;5595;50.186;8.468;2023-05-29T09:41:20;22.10;63.20
11083;DHT22;5595;50.186;8.468;2023-05-29T09:43:49;22.20;64.40
11083;DHT22;5595;50.186;8.468;2023-05-29T09:46:16;22.40;64.10
11083;DHT22;5595;50.186;8.468;2023-05-29T09:48:44;22.40;63.50
11083;DHT22;5595;50.186;8.468;2023-05-29T09:51:19;22.40;63.50
11083;DHT22;5595;50.186;8.468;2023-05-29T09:53:47;22.40;64.00
11083;DHT22;5595;50.186;8.468;2023-05-29T09:56:16;22.60;64.50
11083;DHT22;5595;50.186;8.468;2023-05-29T09:58:44;22.70;64.50
11083;DHT22;5595;50.186;8.468;2023-05-29T10:01:13;22.70;63.60
11083;DHT22;5595;50.186;8.468;2023-05-29T10:03:41;22.70;63.40
11083;DHT22;5595;50.186;8.468;2023-05-29T10:06:11;22.70;63.10
11083;DHT22;5595;50.186;8.468;2023-05-29T10:08:44;22.80;63.60
11083;DHT22;5595;50.186;8.468;2023-05-29T10:11:13;22.80;62.30
11083;DHT22;5595;50.186;8.468;2023-05-29T10:13:42;22.80;61.30
11083;DHT22;5595;50.186;8.468;2023-05-29T10:16:15;22.80;60.70
11083;DHT22;5595;50.186;8.468;2023-05-29T10:18:44;22.80;60.70
11083;DHT22;5595;50.186;8.468;2023-05-29T10:21:15;22.80;61.10
11083;DHT22;5595;50.186;8.468;2023-05-29T10:23:45;22.90;60.40
11083;DHT22;5595;50.186;8.468;2023-05-29T10:26:15;22.90;60.20
11083;DHT22;5595;50.186;8.468;2023-05-29T10:28:48;22.90;59.70
11083;DHT22;5595;50.186;8.468;2023-05-29T10:31:20;22.90;60.40
11083;DHT22;5595;50.186;8.468;2023-05-29T10:33:56;22.80;61.40
11083;DHT22;5595;50.186;8.468;2023-05-29T10:36:32;22.90;62.10
11083;DHT22;5595;50.186;8.468;2023-05-29T10:39:02;23.00;62.40
11083;DHT22;5595;50.186;8.468;2023-05-29T10:41:32;23.10;62.10
11083;DHT22;5595;50.186;8.468;2023-05-29T10:44:00;23.20;61.10
11083;DHT22;5595;50.186;8.468;2023-05-29T10:47:07;23.30;59.60
11083;DHT22;5595;50.186;8.468;2023-05-29T10:49:37;23.40;59.10
11083;DHT22;5595;50.186;8.468;2023-05-29T10:52:04;23.40;58.60
11083;DHT22;5595;50.186;8.468;2023-05-29T10:54:41;23.50;58.70
11083;DHT22;5595;50.186;8.468;2023-05-29T10:57:16;23.60;59.20
11083;DHT22;5595;50.186;8.468;2023-05-29T10:59:44;23.70;59.80
11083;DHT22;5595;50.186;8.468;2023-05-29T11:02:17;23.60;56.20
11083;DHT22;5595;50.186;8.468;2023-05-29T11:05:04;23.40;56.20
11083;DHT22;5595;50.186;8.468;2023-05-29T11:07:33;23.30;56.70
11083;DHT22;5595;50.186;8.468;2023-05-29T11:10:11;23.30;56.50
11083;DHT22;5595;50.186;8.468;2023-05-29T11:12:56;23.30;57.20
11083;DHT22;5595;50.186;8.468;2023-05-29T11:15:24;23.30;57.80
11083;DHT22;5595;50.186;8.468;2023-05-29T11:17:52;23.30;57.40
11083;DHT22;5595;50.186;8.468;2023-05-29T11:20:36;23.30;55.90
11083;DHT22;5595;50.186;8.468;2023-05-29T11:23:04;23.30;55.30
11083;DHT22;5595;50.186;8.468;2023-05-29T11:25:35;23.20;55.90
11083;DHT22;5595;50.186;8.468;2023-05-29T11:28:03;23.30;56.70
11083;DHT22;5595;50.186;8.468;2023-05-29T11:30:44;23.20;57.70
11083;DHT22;5595;50.186;8.468;2023-05-29T11:33:19;23.20;58.80
11083;DHT22;5595;50.186;8.468;2023-05-29T11:35:52;23.30;59.50
11083;DHT22;5595;50.186;8.468;2023-05-29T11:38:21;23.20;59.80
11083;DHT22;5595;50.186;8.468;2023-05-29T11:40:48;23.20;59.90
11083;DHT22;5595;50.186;8.468;2023-05-29T11:43:16;23.20;60.00
11083;DHT22;5595;50.186;8.468;2023-05-29T11:45:43;23.30;61.00
11083;DHT22;5595;50.186;8.468;2023-05-29T11:48:10;23.50;61.40
11083;DHT22;5595;50.186;8.468;2023-05-29T11:50:39;23.60;61.20
11083;DHT22;5595;50.186;8.468;2023-05-29T11:53:07;23.70;60.80
11083;DHT22;5595;50.186;8.468;2023-05-29T11:55:34;23.60;60.40
11083;DHT22;5595;50.186;8.468;2023-05-29T11:58:02;23.60;60.30
11083;DHT22;5595;50.186;8.468;2023-05-29T12:00:31;23.60;60.30
11083;DHT22;5595;50.186;8.468;2023-05-29T12:03:02;23.60;59.80
11083;DHT22;5595;50.186;8.468;2023-05-29T12:05:30;23.60;59.70
11083;DHT22;5595;50.186;8.468;2023-05-29T12:07:58;23.50;59.60
11083;DHT22;5595;50.186;8.468;2023-05-29T12:10:28;23.50;59.30
11083;DHT22;5595;50.186;8.468;2023-05-29T12:12:59;23.50;59.10
11083;DHT22;5595;50.186;8.468;2023-05-29T12:15:32;23.50;58.70
11083;DHT22;5595;50.186;8.468;2023-05-29T12:18:13;23.50;58.90
11083;DHT22;5595;50.186;8.468;2023-05-29T12:20:56;23.50;59.20
11083;DHT22;5595;50.186;8.468;2023-05-29T12:23:30;23.40;58.20
11083;DHT22;5595;50.186;8.468;2023-05-29T12:25:58;23.30;58.40
11083;DHT22;5595;50.186;8.468;2023-05-29T12:28:25;23.30;58.70
11083;DHT22;5595;50.186;8.468;2023-05-29T12:30:58;23.30;58.90
11083;DHT22;5595;50.186;8.468;2023-05-29T12:33:27;23.40;59.70
11083;DHT22;5595;50.186;8.468;2023-05-29T12:35:54;23.60;59.20
11083;DHT22;5595;50.186;8.468;2023-05-29T12:38:27;23.60;59.20
11083;DHT22;5595;50.186;8.468;2023-05-29T12:40:55;23.60;59.30
11083;DHT22;5595;50.186;8.468;2023-05-29T12:43:22;23.60;59.20
11083;DHT22;5595;50.186;8.468;2023-05-29T12:45:54;23.60;59.20
11083;DHT22;5595;50.186;8.468;2023-05-29T12:48:26;23.70;59.00
11083;DHT22;5595;50.186;8.468;2023-05-29T12:50:53;23.70;59.60
11083;DHT22;5595;50.186;8.468;2023-05-29T12:53:20;23.70;59.60
11083;DHT22;5595;50.186;8.468;2023-05-29T12:55:47;23.80;59.50
11083;DHT22;5595;50.186;8.468;2023-05-29T12:58:15;23.90;59.30
11083;DHT22;5595;50.186;8.468;2023-05-29T13:00:43;23.90;59.40
11083;DHT22;5595;50.186;8.468;2023-05-29T13:03:10;23.90;59.10
11083;DHT22;5595;50.186;8.468;2023-05-29T13:05:37;23.90;59.30
11083;DHT22;5595;50.186;8.468;2023-05-29T13:08:05;23.90;58.80
11083;DHT22;5595;50.186;8.468;2023-05-29T13:10:32;24.00;58.80
11083;DHT22;5595;50.186;8.468;2023-05-29T13:13:00;24.20;59.10
11083;DHT22;5595;50.186;8.468;2023-05-29T13:15:28;24.30;59.10
11083;DHT22;5595;50.186;8.468;2023-05-29T13:17:55;24.40;58.70
11083;DHT22;5595;50.186;8.468;2023-05-29T13:20:22;24.20;57.70
11083;DHT22;5595;50.186;8.468;2023-05-29T13:22:49;24.30;58.00
11083;DHT22;5595;50.186;8.468;2023-05-29T13:25:17;24.20;58.20
11083;DHT22;5595;50.186;8.468;2023-05-29T13:27:47;24.30;58.80
11083;DHT22;5595;50.186;8.468;2023-05-29T13:30:14;24.50;59.10
11083;DHT22;5595;50.186;8.468;2023-05-29T13:32:42;24.60;58.80
11083;DHT22;5595;50.186;8.468;2023-05-29T13:35:09;24.60;58.50
11083;DHT22;5595;50.186;8.468;2023-05-29T13:37:37;24.50;57.80
11083;DHT22;5595;50.186;8.468;2023-05-29T13:40:05;24.50;57.80
11083;DHT22;5595;50.186;8.468;2023-05-29T13:42:32;24.50;58.00
11083;DHT22;5595;50.186;8.468;2023-05-29T13:44:59;24.40;58.00
11083;DHT22;5595;50.186;8.468;2023-05-29T13:47:26;24.50;57.90
11083;DHT22;5595;50.186;8.468;2023-05-29T13:49:55;24.50;58.20
11083;DHT22;5595;50.186;8.468;2023-05-29T13:52:22;24.50;57.80
11083;DHT22;5595;50.186;8.468;2023-05-29T13:54:49;24.40;57.40
11083;DHT22;5595;50.186;8.468;2023-05-29T13:57:16;24.30;56.90
11083;DHT22;5595;50.186;8.468;2023-05-29T13:59:43;24.30;56.60
11083;DHT22;5595;50.186;8.468;2023-05-29T14:02:11;24.30;56.80
11083;DHT22;5595;50.186;8.468;2023-05-29T14:04:38;24.30;56.90
11083;DHT22;5595;50.186;8.468;2023-05-29T14:07:09;24.20;57.00
11083;DHT22;5595;50.186;8.468;2023-05-29T14:09:36;24.30;57.80
11083;DHT22;5595;50.186;8.468;2023-05-29T14:12:03;24.20;57.70
11083;DHT22;5595;50.186;8.468;2023-05-29T14:14:32;24.20;58.10
11083;DHT22;5595;50.186;8.468;2023-05-29T14:16:59;24.30;58.50
11083;DHT22;5595;50.186;8.468;2023-05-29T14:19:26;24.30;58.40
11083;DHT22;5595;50.186;8.468;2023-05-29T14:21:53;24.30;59.00
11083;DHT22;5595;50.186;8.468;2023-05-29T14:24:21;24.40;59.40
11083;DHT22;5595;50.186;8.468;2023-05-29T14:26:50;24.40;59.30
11083;DHT22;5595;50.186;8.468;2023-05-29T14:29:19;24.40;58.90
11083;DHT22;5595;50.186;8.468;2023-05-29T14:31:45;24.30;58.70
11083;DHT22;5595;50.186;8.468;2023-05-29T14:34:12;24.30;59.00
11083;DHT22;5595;50.186;8.468;2023-05-29T14:36:39;24.30;59.10
11083;DHT22;5595;50.186;8.468;2023-05-29T14:39:07;24.40;58.80
11083;DHT22;5595;50.186;8.468;2023-05-29T14:41:35;24.40;58.80
11083;DHT22;5595;50.186;8.468;2023-05-29T14:44:02;24.30;58.80
11083;DHT22;5595;50.186;8.468;2023-05-29T14:46:29;24.30;59.30
11083;DHT22;5595;50.186;8.468;2023-05-29T14:48:57;24.40;59.50
11083;DHT22;5595;50.186;8.468;2023-05-29T14:51:24;24.50;59.30
11083;DHT22;5595;50.186;8.468;2023-05-29T14:53:51;24.40;59.00
11083;DHT22;5595;50.186;8.468;2023-05-29T14:56:18;24.40;59.20
11083;DHT22;5595;50.186;8.468;2023-05-29T14:58:46;24.20;59.00
11083;DHT22;5595;50.186;8.468;2023-05-29T15:01:14;24.10;59.30
11083;DHT22;5595;50.186;8.468;2023-05-29T15:03:41;24.00;60.00
11083;DHT22;5595;50.186;8.468;2023-05-29T15:06:09;24.00;59.50
11083;DHT22;5595;50.186;8.468;2023-05-29T15:08:37;24.00;60.00
11083;DHT22;5595;50.186;8.468;2023-05-29T15:11:05;24.10;59.60
11083;DHT22;5595;50.186;8.468;2023-05-29T15:13:32;24.00;59.50
11083;DHT22;5595;50.186;8.468;2023-05-29T15:16:00;24.10;59.50
11083;DHT22;5595;50.186;8.468;2023-05-29T15:18:28;24.10;59.40
11083;DHT22;5595;50.186;8.468;2023-05-29T15:20:55;24.10;59.30
11083;DHT22;5595;50.186;8.468;2023-05-29T15:23:23;24.10;59.20
11083;DHT22;5595;50.186;8.468;2023-05-29T15:25:50;24.10;59.20
11083;DHT22;5595;50.186;8.468;2023-05-29T15:28:17;24.20;59.30
11083;DHT22;5595;50.186;8.468;2023-05-29T15:30:44;24.20;59.40
11083;DHT22;5595;50.186;8.468;2023-05-29T15:33:16;24.30;59.30
11083;DHT22;5595;50.186;8.468;2023-05-29T15:35:43;24.40;59.20
11083;DHT22;5595;50.186;8.468;2023-05-29T15:38:11;24.30;59.20
11083;DHT22;5595;50.186;8.468;2023-05-29T15:40:38;24.20;59.20
11083;DHT22;5595;50.186;8.468;2023-05-29T15:43:05;24.20;59.70
11083;DHT22;5595;50.186;8.468;2023-05-29T15:45:35;24.10;59.90
11083;DHT22;5595;50.186;8.468;2023-05-29T15:48:02;24.10;60.10
11083;DHT22;5595;50.186;8.468;2023-05-29T15:50:30;24.10;60.70
11083;DHT22;5595;50.186;8.468;2023-05-29T15:52:57;24.40;60.80
11083;DHT22;5595;50.186;8.468;2023-05-29T15:55:24;24.40;59.90
11083;DHT22;5595;50.186;8.468;2023-05-29T15:57:51;24.50;59.80